Observations for TORINO CASELLE, Italy (LIMF)

LIMF 260450Z 31003KT 9999 BKN050 20/17 Q1019
LIMF 260420Z 28004KT 9999 BKN040 21/18 Q1019
LIMF 260350Z 33002KT 9999 FEW040 21/18 Q1019
LIMF 260320Z VRB01KT 9999 FEW040 20/18 Q1019
LIMF 260250Z 27003KT CAVOK 21/18 Q1019  
LIMF 260220Z 21002KT CAVOK 20/18 Q1019  
LIMF 260150Z 24004KT CAVOK 21/18 Q1019  
LIMF 260120Z VRB02KT CAVOK 21/18 Q1019  
LIMF 260050Z 27003KT 210V310 CAVOK 21/18 Q1019  
LIMF 260020Z VRB02KT 9999 FEW060 22/18 Q1019
LIMF 252350Z 34003KT 9999 FEW065 23/18 Q1019
LIMF 252320Z 32006KT 9999 FEW120 24/18 Q1019
LIMF 252250Z 30006KT CAVOK 24/18 Q1019  
LIMF 252220Z 33004KT CAVOK 23/19 Q1020  
LIMF 252150Z 35005KT 9999 SCT110 24/19 Q1020
LIMF 252120Z 34006KT CAVOK 23/19 Q1019  
LIMF 252050Z 35006KT CAVOK 24/19 Q1019  
LIMF 252020Z 35004KT CAVOK 24/19 Q1019  
LIMF 251950Z 02004KT 9999 BKN050 25/20 Q1019
LIMF 251920Z 04003KT 360V070 9999 SCT050 26/19 Q1018
LIMF 251850Z VRB02KT CAVOK 26/19 Q1018  
LIMF 251820Z VRB01KT 9999 FEW050 27/19 Q1017
LIMF 251750Z 07004KT CAVOK 27/19 Q1017  
LIMF 251720Z 07004KT CAVOK 29/18 Q1017  
LIMF 251650Z 10003KT 070V140 CAVOK 29/17 Q1017  
LIMF 251620Z 14003KT 110V190 CAVOK 30/17 Q1017  
LIMF 251550Z 13005KT 100V170 CAVOK 30/17 Q1017  
LIMF 251520Z 15005KT 120V200 9999 SCT040 30/17 Q1017
LIMF 251450Z 15004KT 080V210 9999 SCT040 30/17 Q1017
LIMF 251420Z 20004KT 150V230 9999 SCT040 30/17 Q1017
LIMF 251350Z VRB02KT 9999 SCT040 30/18 Q1018
LIMF 251320Z 11004KT 020V160 9999 SCT040 29/18 Q1018
LIMF 251250Z 15003KT 120V230 CAVOK 29/17 Q1018  
LIMF 251220Z VRB03KT CAVOK 29/18 Q1019  
LIMF 251150Z 09004KT 030V170 CAVOK 28/17 Q1019  
LIMF 251120Z 12004KT 060V200 CAVOK 27/17 Q1019  
LIMF 251050Z VRB02KT CAVOK 27/17 Q1019  
LIMF 251020Z 11004KT 060V140 CAVOK 27/17 Q1019  
LIMF 250950Z 07004KT 030V160 CAVOK 26/18 Q1020  
LIMF 250920Z VRB03KT CAVOK 26/17 Q1020  
LIMF 250850Z VRB02KT CAVOK 25/18 Q1020  
LIMF 250820Z 10003KT 040V150 CAVOK 24/18 Q1020  
LIMF 250750Z 11004KT 060V160 CAVOK 23/18 Q1020  
LIMF 250720Z VRB02KT CAVOK 23/18 Q1020  
LIMF 250620Z 32003KT 290V020 CAVOK 22/18 Q1020  
LIMF 250550Z 28005KT 9999 FEW060 20/17 Q1019
LIMF 250520Z 31003KT CAVOK 20/17 Q1019  
LIMF 250450Z 34002KT CAVOK 21/17 Q1019  
LIMF 250420Z 04003KT 010V070 CAVOK 19/17 Q1019